Time;durP1;ratioP1;P1;durP2;ratioP2;P2;SDS_P1;SDS_P2;PMS_P1;PMS_P2;Temp;Humidity;BMP_temperature;BMP_pressure;BME280_temperature;BME280_humidity;BME280_pressure;Samples;Min_cycle;Max_cycle;Signal;HPM_P1;HPM_P2
2021/05/02 00:00:19;;;;;;;;;;;;;;;;;;5051999;28;19995;-73
2021/05/02 00:02:45;;;;;;;;;;;;;;;;;;5052107;28;19952;-72
2021/05/02 00:05:11;;;;;;;;;;;;;;;;;;5030673;28;20429;-75
2021/05/02 00:07:37;;;;;;;;;;;;;;;;;;5031156;28;19905;-73
2021/05/02 00:10:03;;;;;;;;;;;;;;;;;;5051936;28;19912;-70
2021/05/02 00:12:28;;;;;;;;;;;563.60;1587.20;;;;;;5052246;28;19905;-71
2021/05/02 00:14:54;;;;;;;;;;;;;;;;;;5051798;28;19913;-72
2021/05/02 00:17:20;;;;;;;;;;;;;;;;;;5052314;28;20278;-70
2021/05/02 00:19:46;;;;;;;;;;;;;;;;;;5052118;28;19928;-70
2021/05/02 00:22:12;;;;;;;;;;;;;;;;;;5051603;28;19940;-70
2021/05/02 00:24:38;;;;;;;;;;;;;;;;;;5051956;28;19916;-71
2021/05/02 00:27:04;;;;;;;;;;;;;;;;;;5051715;28;20362;-70
2021/05/02 00:29:30;;;;;;;;;;;;;;;;;;5051721;28;19905;-70
2021/05/02 00:31:56;;;;;;;;;;;;;;;;;;5051816;28;19909;-69
2021/05/02 00:34:23;;;;;;;;;;;;;;;;;;5052003;28;19912;-70
2021/05/02 00:36:49;;;;;;;;;;;;;;;;;;5051570;28;20005;-70
2021/05/02 00:39:15;;;;;;;;;;;563.60;1587.20;;;;;;5051510;28;19988;-67
2021/05/02 00:41:41;;;;;;;;;;;563.30;1587.20;;;;;;5053274;28;19904;-68
2021/05/02 00:44:16;;;;;;;;;;;563.20;1612.80;;;;;;5055082;28;19908;-69
2021/05/02 00:46:51;;;;;;;;;;;563.20;1587.20;;;;;;5055299;28;19913;-69
2021/05/02 00:49:19;;;;;;;;;;;563.20;1561.60;;;;;;5055162;28;19916;-70
2021/05/02 00:51:55;;;;;;;;;;;563.20;1587.20;;;;;;5040941;28;19908;-69
2021/05/02 00:54:26;;;;;;;;;;;563.20;1587.20;;;;;;5055212;28;20377;-69
2021/05/02 00:57:03;;;;;;;;;;;563.30;1587.20;;;;;;5038433;28;20062;-71
2021/05/02 00:59:36;;;;;;;;;;;538.50;1536.00;;;;;;5057743;28;19912;-73
2021/05/02 01:02:03;;;;;;;;;;;538.50;1510.40;;;;;;5053997;28;19904;-73
2021/05/02 01:04:29;;;;;;;;;;;538.50;1484.80;;;;;;5065594;28;19912;-71
2021/05/02 01:07:01;;;;;;;;;;;538.50;1664.00;;;;;;5068682;28;19912;-71
2021/05/02 01:09:28;;;;;;;;;;;538.50;1484.80;;;;;;5066655;28;19919;-70
2021/05/02 01:11:55;;;;;;;;;;;538.50;1484.80;;;;;;5067737;28;19908;-71
2021/05/02 01:14:23;;;;;;;;;;;563.20;1510.40;;;;;;5068378;28;19998;-70
2021/05/02 01:16:49;;;;;;;;;;;563.50;1484.80;;;;;;5061591;28;20039;-71
2021/05/02 01:19:15;;;;;;;;;;;563.40;1484.80;;;;;;5051603;28;19908;-70
2021/05/02 01:21:41;;;;;;;;;;;563.50;1484.80;;;;;;5069261;28;19933;-68
2021/05/02 01:24:08;;;;;;;;;;;563.50;1459.20;;;;;;5072175;28;19967;-70
2021/05/02 01:26:41;;;;;;;;;;;563.50;1484.80;;;;;;5048448;28;19923;-68
2021/05/02 01:29:06;;;;;;;;;;;563.60;1484.80;;;;;;5057345;28;19909;-70
2021/05/02 01:31:32;;;;;;;;;;;563.60;1484.80;;;;;;5056186;28;19905;-69
2021/05/02 01:33:58;;;;;;;;;;;563.50;1536.00;;;;;;5056401;28;19908;-69
2021/05/02 01:36:24;;;;;;;;;;;563.50;1510.40;;;;;;5055962;28;20390;-69
2021/05/02 01:38:50;;;;;;;;;;;563.40;1536.00;;;;;;5038445;28;19982;-70
2021/05/02 01:41:16;;;;;;;;;;;563.40;1536.00;;;;;;5055756;28;19908;-71
2021/05/02 01:43:42;;;;;;;;;;;563.30;1536.00;;;;;;5055601;28;19951;-73
2021/05/02 01:46:07;;;;;;;;;;;563.20;1561.60;;;;;;5056831;28;20003;-72
2021/05/02 01:48:36;;;;;;;;;;;563.20;1561.60;;;;;;5055599;28;20355;-71
2021/05/02 01:51:08;;;;;;;;;;;538.50;1561.60;;;;;;5054008;28;20007;-73
2021/05/02 01:53:35;;;;;;;;;;;538.50;1587.20;;;;;;5052623;28;19982;-70
2021/05/02 01:56:01;;;;;;;;;;;538.40;1561.60;;;;;;5054059;28;19911;-70
2021/05/02 01:58:26;;;;;;;;;;;538.40;1536.00;;;;;;5053827;28;19905;-70
2021/05/02 02:00:54;;;;;;;;;;;538.40;1536.00;;;;;;5053884;28;19951;-69
2021/05/02 02:03:20;;;;;;;;;;;538.20;1561.60;;;;;;5053862;28;19912;-70
2021/05/02 02:05:47;;;;;;;;;;;538.10;1561.60;;;;;;5054047;28;19913;-72
2021/05/02 02:08:12;;;;;;;;;;;;;;;;;;5053627;28;19912;-70
2021/05/02 02:10:38;;;;;;;;;;;538.00;1561.60;;;;;;5053736;28;19908;-69
2021/05/02 02:13:04;;;;;;;;;;;538.10;1561.60;;;;;;5053666;28;19915;-69
2021/05/02 02:15:30;;;;;;;;;;;538.00;1561.60;;;;;;5053275;28;19951;-71
2021/05/02 02:17:56;;;;;;;;;;;;;;;;;;5053737;28;20281;-72
2021/05/02 02:20:23;;;;;;;;;;;538.40;1612.80;;;;;;5053521;28;19904;-70
2021/05/02 02:22:50;;;;;;;;;;;538.40;1510.40;;;;;;5053744;28;19909;-71
2021/05/02 02:25:17;;;;;;;;;;;538.50;1484.80;;;;;;5053816;28;19912;-69
2021/05/02 02:27:44;;;;;;;;;;;538.40;1510.40;;;;;;5053343;28;19909;-69
2021/05/02 02:30:11;;;;;;;;;;;538.20;1510.40;;;;;;5053142;28;20014;-69
2021/05/02 02:32:47;;;;;;;;;;;538.30;1510.40;;;;;;5053142;28;19904;-69
2021/05/02 02:35:15;;;;;;;;;;;538.40;1510.40;;;;;;5053374;28;19928;-70
2021/05/02 02:37:43;;;;;;;;;;;538.50;1510.40;;;;;;5039885;28;20378;-70
2021/05/02 02:40:09;;;;;;;;;;;538.20;1561.60;;;;;;5053253;28;19949;-69
2021/05/02 02:42:35;;;;;;;;;;;538.40;1510.40;;;;;;5053228;28;20383;-71
2021/05/02 02:45:04;;;;;;;;;;;538.40;1536.00;;;;;;5052789;28;19905;-73
2021/05/02 02:47:34;;;;;;;;;;;538.10;1561.60;;;;;;5052824;28;19905;-73
2021/05/02 02:50:00;;;;;;;;;;;538.30;1536.00;;;;;;5052993;28;19905;-72
2021/05/02 02:52:27;;;;;;;;;;;538.10;1561.60;;;;;;5052755;28;19924;-71
2021/05/02 02:55:03;;;;;;;;;;;538.30;1561.60;;;;;;5034247;28;19909;-72
2021/05/02 02:57:31;;;;;;;;;;;538.20;1561.60;;;;;;5052858;28;19915;-72
2021/05/02 02:59:57;;;;;;;;;;;538.00;1587.20;;;;;;5052623;28;19904;-74
2021/05/02 03:02:23;;;;;;;;;;;;;;;;;;5052864;28;19967;-74
2021/05/02 03:04:49;;;;;;;;;;;;;;;;;;5052349;28;19911;-73
2021/05/02 03:07:15;;;;;;;;;;;;;;;;;;5052773;28;20329;-74
2021/05/02 03:09:41;;;;;;;;;;;;;;;;;;5052777;28;19905;-70
2021/05/02 03:12:10;;;;;;;;;;;;;;;;;;5052710;28;19970;-74
2021/05/02 03:14:36;;;;;;;;;;;538.30;1561.60;;;;;;5052580;28;19916;-68
2021/05/02 03:17:03;;;;;;;;;;;538.10;1612.80;;;;;;5052849;28;19905;-70
2021/05/02 03:22:13;;;;;;;;;;;538.00;1638.40;;;;;;5116625;22;19973;-70
2021/05/02 03:24:41;;;;;;;;;;;537.60;1689.60;;;;;;5060291;28;19904;-70
2021/05/02 03:27:27;;;;;;;;;;;512.90;1664.00;;;;;;5053647;28;19912;-70
2021/05/02 03:29:55;;;;;;;;;;;537.70;1664.00;;;;;;5071849;28;19909;-70
2021/05/02 03:32:23;;;;;;;;;;;537.70;1664.00;;;;;;5072342;28;19915;-70
2021/05/02 03:34:50;;;;;;;;;;;537.90;1664.00;;;;;;5060796;28;20359;-70
2021/05/02 03:37:19;;;;;;;;;;;537.90;1664.00;;;;;;5069042;28;19912;-74
2021/05/02 03:39:48;;;;;;;;;;;537.70;1689.60;;;;;;5072404;28;20009;-74
2021/05/02 03:42:15;;;;;;;;;;;537.80;1664.00;;;;;;5072464;28;19908;-74
2021/05/02 03:44:40;;;;;;;;;;;537.70;1689.60;;;;;;5064492;28;19939;-71
2021/05/02 03:47:06;;;;;;;;;;;537.60;1715.20;;;;;;5065951;28;20001;-74
2021/05/02 03:49:32;;;;;;;;;;;537.60;1715.20;;;;;;5057998;28;20371;-71
2021/05/02 03:51:58;;;;;;;;;;;;;;;;;;5072189;28;19919;-74
2021/05/02 03:54:24;;;;;;;;;;;;;;;;;;5071956;28;19977;-75
2021/05/02 03:56:50;;;;;;;;;;;;;;;;;;5071921;28;19904;-72
2021/05/02 03:59:15;;;;;;;;;;;;;;;;;;5072181;28;20022;-72
2021/05/02 04:01:54;;;;;;;;;;;512.80;1664.00;;;;;;5071844;28;20358;-75
2021/05/02 04:04:20;;;;;;;;;;;;;;;;;;5072215;28;20400;-72
2021/05/02 04:06:46;;;;;;;;;;;;;;;;;;5071820;28;19913;-72
2021/05/02 04:09:12;;;;;;;;;;;;;;;;;;5071905;28;19948;-76
2021/05/02 04:11:38;;;;;;;;;;;;;;;;;;5071883;28;19908;-73
2021/05/02 04:14:04;;;;;;;;;;;512.80;1689.60;;;;;;5070851;28;19904;-71
2021/05/02 04:16:30;;;;;;;;;;;512.90;1689.60;;;;;;5069528;28;20423;-72
2021/05/02 04:18:56;;;;;;;;;;;512.90;1689.60;;;;;;5074649;28;19908;-76
2021/05/02 04:21:21;;;;;;;;;;;512.90;1715.20;;;;;;5075935;28;20366;-75
2021/05/02 04:23:47;;;;;;;;;;;537.60;1740.80;;;;;;5075947;28;19911;-74
2021/05/02 04:26:12;;;;;;;;;;;537.60;1740.80;;;;;;5076109;28;19912;-76
2021/05/02 04:28:39;;;;;;;;;;;537.60;1766.40;;;;;;5075782;28;20274;-74
2021/05/02 04:31:04;;;;;;;;;;;537.60;1740.80;;;;;;5075884;28;19905;-71
2021/05/02 04:33:30;;;;;;;;;;;537.70;1740.80;;;;;;5061612;28;19919;-71
2021/05/02 04:35:56;;;;;;;;;;;;;;;;;;5055602;28;20363;-74
2021/05/02 04:38:22;;;;;;;;;;;;;;;;;;5055790;28;19909;-72
2021/05/02 04:40:48;;;;;;;;;;;;;;;;;;5055376;28;19911;-75
2021/05/02 04:43:14;;;;;;;;;;;;;;;;;;5055934;28;19905;-73
2021/05/02 04:45:39;;;;;;;;;;;537.90;1817.60;;;;;;5054992;28;19920;-75
2021/05/02 04:48:05;;;;;;;;;;;537.90;1664.00;;;;;;5055512;28;19958;-75
2021/05/02 04:50:31;;;;;;;;;;;537.70;1689.60;;;;;;5063408;28;19916;-73
2021/05/02 04:52:59;;;;;;;;;;;537.80;1689.60;;;;;;5059061;28;19908;-74
2021/05/02 04:55:24;;;;;;;;;;;537.70;1715.20;;;;;;5055213;28;19939;-75
2021/05/02 04:57:50;;;;;;;;;;;512.70;1715.20;;;;;;5055308;28;19947;-75
2021/05/02 05:00:16;;;;;;;;;;;512.50;1715.20;;;;;;5055248;28;20030;-75
2021/05/02 05:02:41;;;;;;;;;;;512.60;1715.20;;;;;;5043677;28;19909;-75
2021/05/02 05:05:07;;;;;;;;;;;512.70;1715.20;;;;;;5043750;28;19939;-74
2021/05/02 05:07:33;;;;;;;;;;;512.80;1715.20;;;;;;5055219;28;19908;-75
2021/05/02 05:09:58;;;;;;;;;;;512.80;1740.80;;;;;;5043333;28;19905;-75
2021/05/02 05:12:24;;;;;;;;;;;512.70;1740.80;;;;;;5055172;28;20347;-75
2021/05/02 05:14:49;;;;;;;;;;;537.70;1740.80;;;;;;5054690;28;19905;-75
2021/05/02 05:17:15;;;;;;;;;;;;;;;;;;5054928;28;19995;-73
2021/05/02 05:19:41;;;;;;;;;;;;;;;;;;5054674;28;19915;-74
2021/05/02 05:22:07;;;;;;;;;;;;;;;;;;5054652;28;19917;-71
2021/05/02 05:24:33;;;;;;;;;;;;;;;;;;5054991;28;19909;-71
2021/05/02 05:26:59;;;;;;;;;;;;;;;;;;5054167;28;19912;-72
2021/05/02 05:29:25;;;;;;;;;;;;;;;;;;5050912;28;19927;-73
2021/05/02 05:31:51;;;;;;;;;;;;;;;;;;5060858;28;20363;-73
2021/05/02 05:34:16;;;;;;;;;;;;;;;;;;5054967;28;19995;-73
2021/05/02 05:36:42;;;;;;;;;;;;;;;;;;5054497;28;20763;-72
2021/05/02 05:39:08;;;;;;;;;;;;;;;;;;5054828;28;20373;-72
2021/05/02 05:41:34;;;;;;;;;;;;;;;;;;5054448;28;19912;-70
2021/05/02 05:44:00;;;;;;;;;;;;;;;;;;5054437;28;19905;-73
2021/05/02 05:46:26;;;;;;;;;;;;;;;;;;5054037;28;20003;-73
2021/05/02 05:48:52;;;;;;;;;;;;;;;;;;5050477;28;19905;-70
2021/05/02 05:51:19;;;;;;;;;;;;;;;;;;5070601;28;19913;-74
2021/05/02 05:53:45;;;;;;;;;;;;;;;;;;5074406;28;19916;-74
2021/05/02 05:56:10;;;;;;;;;;;;;;;;;;5074199;28;19949;-71
2021/05/02 05:58:36;;;;;;;;;;;;;;;;;;5074329;28;19957;-73
2021/05/02 06:01:02;;;;;;;;;;;;;;;;;;5072413;28;20265;-72
2021/05/02 06:03:28;;;;;;;;;;;;;;;;;;5072298;28;19905;-72
2021/05/02 06:05:54;;;;;;;;;;;;;;;;;;5072788;28;19916;-72
2021/05/02 06:08:20;;;;;;;;;;;;;;;;;;5074457;28;19911;-71
2021/05/02 06:10:46;;;;;;;;;;;;;;;;;;5073767;28;19951;-69
2021/05/02 06:13:12;;;;;;;;;;;;;;;;;;5072436;28;19908;-70
2021/05/02 06:15:38;;;;;;;;;;;;;;;;;;5069820;28;19905;-71
2021/05/02 06:18:04;;;;;;;;;;;;;;;;;;5073759;28;19904;-71
2021/05/02 06:20:30;;;;;;;;;;;;;;;;;;5071760;28;19943;-71
2021/05/02 06:22:55;;;;;;;;;;;;;;;;;;5074079;28;19935;-72
2021/05/02 06:25:21;;;;;;;;;;;;;;;;;;5073721;28;19912;-71
2021/05/02 06:27:47;;;;;;;;;;;;;;;;;;5073704;28;19909;-70
2021/05/02 06:30:13;;;;;;;;;;;;;;;;;;5073525;28;20312;-72
2021/05/02 06:32:39;;;;;;;;;;;;;;;;;;5073797;28;19904;-70
2021/05/02 06:35:05;;;;;;;;;;;;;;;;;;5074103;28;20381;-70
2021/05/02 06:37:31;;;;;;;;;;;;;;;;;;5073348;28;19908;-71
2021/05/02 06:39:57;;;;;;;;;;;;;;;;;;5072738;28;19908;-71
2021/05/02 06:42:23;;;;;;;;;;;;;;;;;;5073096;28;19911;-70
2021/05/02 06:44:49;;;;;;;;;;;;;;;;;;5069622;28;19905;-71
2021/05/02 06:47:15;;;;;;;;;;;;;;;;;;5068102;28;19997;-72
2021/05/02 06:49:41;;;;;;;;;;;;;;;;;;5058907;28;19982;-73
2021/05/02 06:52:07;;;;;;;;;;;;;;;;;;5071469;28;19915;-71
2021/05/02 06:54:33;;;;;;;;;;;;;;;;;;5071994;28;19927;-73
2021/05/02 06:56:59;;;;;;;;;;;;;;;;;;5057854;28;20302;-72
2021/05/02 06:59:25;;;;;;;;;;;;;;;;;;5059783;28;19912;-70
2021/05/02 07:01:50;;;;;;;;;;;;;;;;;;5053861;28;19908;-70
2021/05/02 07:04:16;;;;;;;;;;;;;;;;;;5061886;28;19958;-74
2021/05/02 07:06:42;;;;;;;;;;;;;;;;;;5052728;28;19935;-75
2021/05/02 07:09:08;;;;;;;;;;;;;;;;;;5035581;28;20010;-73
2021/05/02 07:11:34;;;;;;;;;;;;;;;;;;5048171;28;20353;-74
2021/05/02 07:14:02;;;;;;;;;;;;;;;;;;5037562;28;19905;-73
2021/05/02 07:16:28;;;;;;;;;;;;;;;;;;5034951;28;19909;-73
2021/05/02 07:18:54;;;;;;;;;;;;;;;;;;5052431;28;20001;-72
2021/05/02 07:21:20;;;;;;;;;;;;;;;;;;5043521;28;19921;-72
2021/05/02 07:23:46;;;;;;;;;;;;;;;;;;5050433;28;19905;-71
2021/05/02 07:26:12;;;;;;;;;;;;;;;;;;5042243;28;19920;-75
2021/05/02 07:28:38;;;;;;;;;;;;;;;;;;5040691;28;19928;-74
2021/05/02 07:31:04;;;;;;;;;;;;;;;;;;5036699;28;19928;-72
2021/05/02 07:33:30;;;;;;;;;;;;;;;;;;5031540;28;19905;-71
2021/05/02 07:35:56;;;;;;;;;;;;;;;;;;5055794;28;19912;-73
2021/05/02 07:38:22;;;;;;;;;;;;;;;;;;5058910;28;20248;-71
2021/05/02 07:40:49;;;;;;;;;;;;;;;;;;5052403;28;19911;-71
2021/05/02 07:43:15;;;;;;;;;;;;;;;;;;5048998;28;19905;-74
2021/05/02 07:45:41;;;;;;;;;;;;;;;;;;5048287;28;20303;-73
2021/05/02 07:48:06;;;;;;;;;;;;;;;;;;5038926;28;19904;-73
2021/05/02 07:50:32;;;;;;;;;;;;;;;;;;5062043;28;19912;-73
2021/05/02 07:52:58;;;;;;;;;;;;;;;;;;5075118;28;19966;-72
2021/05/02 07:55:24;;;;;;;;;;;;;;;;;;5076437;28;19951;-71
2021/05/02 07:57:50;;;;;;;;;;;;;;;;;;5076209;28;19958;-71
2021/05/02 08:00:19;;;;;;;;;;;;;;;;;;5076374;28;19908;-72
2021/05/02 08:02:45;;;;;;;;;;;;;;;;;;5076402;28;19908;-71
2021/05/02 08:05:11;;;;;;;;;;;;;;;;;;5074753;28;19915;-71
2021/05/02 08:07:37;;;;;;;;;;;;;;;;;;5076298;28;20366;-71
2021/05/02 08:10:03;;;;;;;;;;;;;;;;;;5073095;28;19912;-72
2021/05/02 08:12:29;;;;;;;;;;;;;;;;;;5056145;28;20422;-71
2021/05/02 08:14:54;;;;;;;;;;;;;;;;;;5052538;28;19905;-71
2021/05/02 08:17:20;;;;;;;;;;;;;;;;;;5056102;28;19944;-71
2021/05/02 08:19:46;;;;;;;;;;;;;;;;;;5055623;28;19904;-71
2021/05/02 08:22:12;;;;;;;;;;;;;;;;;;5055734;28;19922;-70
2021/05/02 08:24:38;;;;;;;;;;;;;;;;;;5052973;28;19905;-72
2021/05/02 08:27:04;;;;;;;;;;;;;;;;;;5058731;28;20015;-72
2021/05/02 08:29:30;;;;;;;;;;;;;;;;;;5055700;28;20016;-71
2021/05/02 08:31:56;;;;;;;;;;;;;;;;;;5036648;28;20427;-72
2021/05/02 08:34:22;;;;;;;;;;;;;;;;;;5055297;28;19948;-71
2021/05/02 08:36:48;;;;;;;;;;;;;;;;;;5055329;28;19955;-72
2021/05/02 08:39:14;;;;;;;;;;;;;;;;;;5055187;28;19940;-72
2021/05/02 08:41:40;;;;;;;;;;;;;;;;;;5067028;28;19955;-73
2021/05/02 08:44:06;;;;;;;;;;;;;;;;;;5064801;28;19908;-72
2021/05/02 08:46:32;;;;;;;;;;;;;;;;;;5054800;28;19921;-71
2021/05/02 08:48:58;;;;;;;;;;;;;;;;;;5055207;28;20319;-72
2021/05/02 08:51:24;;;;;;;;;;;;;;;;;;5070685;28;19912;-72
2021/05/02 08:53:50;;;;;;;;;;;;;;;;;;5075230;28;19905;-72
2021/05/02 08:56:16;;;;;;;;;;;;;;;;;;5074935;28;19905;-71
2021/05/02 08:58:42;;;;;;;;;;;;;;;;;;5067445;28;19966;-71
2021/05/02 09:01:08;;;;;;;;;;;;;;;;;;5054627;28;20377;-72
2021/05/02 09:03:33;;;;;;;;;;;;;;;;;;5054051;28;19909;-72
2021/05/02 09:05:59;;;;;;;;;;;;;;;;;;5056823;28;19913;-72
2021/05/02 09:08:25;;;;;;;;;;;;;;;;;;5057344;28;19904;-71
2021/05/02 09:10:51;;;;;;;;;;;;;;;;;;5045516;28;19909;-73
2021/05/02 09:13:17;;;;;;;;;;;;;;;;;;5054471;28;19927;-72
2021/05/02 09:15:46;;;;;;;;;;;;;;;;;;5050813;28;20600;-72
2021/05/02 09:18:18;;;;;;;;;;;;;;;;;;5054532;28;19991;-69
2021/05/02 09:20:44;;;;;;;;;;;;;;;;;;5046144;28;20350;-73
2021/05/02 09:23:10;;;;;;;;;;;;;;;;;;5054708;28;19915;-73
2021/05/02 09:25:36;;;;;;;;;;;;;;;;;;5054487;28;20291;-74
2021/05/02 09:28:02;;;;;;;;;;;;;;;;;;5045476;28;19944;-73
2021/05/02 09:30:28;;;;;;;;;;;;;;;;;;5054808;28;19960;-74
2021/05/02 09:32:54;;;;;;;;;;;;;;;;;;5054382;28;19955;-76
2021/05/02 09:35:20;;;;;;;;;;;;;;;;;;5054129;28;20355;-73
2021/05/02 09:37:46;;;;;;;;;;;;;;;;;;5054141;28;19966;-73
2021/05/02 09:40:12;;;;;;;;;;;;;;;;;;5054717;28;20349;-73
2021/05/02 09:42:39;;;;;;;;;;;;;;;;;;5054213;28;19905;-73
2021/05/02 09:45:05;;;;;;;;;;;;;;;;;;5053986;28;20277;-74
2021/05/02 09:47:32;;;;;;;;;;;;;;;;;;5053759;28;19963;-73
2021/05/02 09:49:58;;;;;;;;;;;;;;;;;;5059262;28;19916;-73
2021/05/02 09:52:24;;;;;;;;;;;;;;;;;;5073986;28;19998;-73
2021/05/02 09:54:49;;;;;;;;;;;;;;;;;;5074143;28;20468;-73
2021/05/02 09:57:15;;;;;;;;;;;;;;;;;;5074237;28;19908;-72
2021/05/02 09:59:41;;;;;;;;;;;;;;;;;;5072331;28;19909;-73
2021/05/02 10:02:07;;;;;;;;;;;;;;;;;;5061034;28;19905;-74
2021/05/02 10:04:33;;;;;;;;;;;;;;;;;;5073697;28;19904;-73
2021/05/02 10:06:59;;;;;;;;;;;;;;;;;;5072210;28;20290;-75
2021/05/02 10:09:25;;;;;;;;;;;;;;;;;;5073653;28;19910;-73
2021/05/02 10:11:51;;;;;;;;;;;;;;;;;;5073442;28;19998;-74
2021/05/02 10:14:17;;;;;;;;;;;;;;;;;;5072528;28;19951;-73
2021/05/02 10:16:43;;;;;;;;;;;;;;;;;;5068823;28;19904;-74
2021/05/02 10:19:11;;;;;;;;;;;;;;;;;;5073652;28;19958;-72
2021/05/02 10:21:37;;;;;;;;;;;;;;;;;;5073237;28;19920;-75
2021/05/02 10:24:03;;;;;;;;;;;;;;;;;;5073635;28;19904;-73
2021/05/02 10:26:29;;;;;;;;;;;;;;;;;;5073516;28;19919;-73
2021/05/02 10:28:55;;;;;;;;;;;;;;;;;;5073485;28;20006;-73
2021/05/02 10:31:21;;;;;;;;;;;;;;;;;;5072319;28;20453;-72
2021/05/02 10:33:48;;;;;;;;;;;;;;;;;;5073299;28;19942;-74
2021/05/02 10:36:16;;;;;;;;;;;;;;;;;;5073509;28;19904;-72
2021/05/02 10:38:42;;;;;;;;;;;;;;;;;;5073502;28;20382;-72
2021/05/02 10:41:08;;;;;;;;;;;;;;;;;;5073347;28;19908;-73
2021/05/02 10:43:34;;;;;;;;;;;;;;;;;;5072271;28;19978;-74
2021/05/02 10:46:00;;;;;;;;;;;;;;;;;;5065364;28;19944;-73
2021/05/02 10:48:26;;;;;;;;;;;;;;;;;;5066480;28;19952;-73
2021/05/02 10:50:53;;;;;;;;;;;793.80;691.20;;;;;;5066282;28;19916;-73
2021/05/02 10:53:19;;;;;;;;;;;793.70;691.20;;;;;;5073058;28;19912;-71
2021/05/02 10:55:46;;;;;;;;;;;768.90;691.20;;;;;;5073240;28;19904;-73
2021/05/02 10:58:19;;;;;;;;;;;793.80;691.20;;;;;;5073018;28;19908;-72
2021/05/02 11:00:56;;;;;;;;;;;794.00;716.80;;;;;;5073474;28;19905;-76
2021/05/02 11:03:40;;;;;;;;;;;794.50;691.20;;;;;;5072881;28;20001;-74
2021/05/02 11:06:06;;;;;;;;;;;794.50;691.20;;;;;;5072926;28;19912;-72
2021/05/02 11:08:47;;;;;;;;;;;794.40;716.80;;;;;;5072793;28;19995;-73
2021/05/02 11:11:31;;;;;;;;;;;794.50;716.80;;;;;;5072695;28;19911;-72
2021/05/02 11:16:35;;;;;;;;;;;794.20;742.40;;;;;;5066786;28;19911;-73
2021/05/02 11:19:01;;;;;;;;;;;;;;;;;;5072631;28;19911;-74
2021/05/02 11:21:50;;;;;;;;;;;794.30;742.40;;;;;;5072538;28;19920;-72
2021/05/02 11:24:15;;;;;;;;;;;794.10;768.00;;;;;;5048236;28;19908;-72
2021/05/02 11:26:41;;;;;;;;;;;;;;;;;;5072143;28;20428;-72
2021/05/02 11:29:15;;;;;;;;;;;;;;;;;;5072390;28;20350;-73
2021/05/02 11:31:41;;;;;;;;;;;;;;;;;;5072379;28;19911;-73
2021/05/02 11:34:07;;;;;;;;;;;;;;;;;;5072153;28;19905;-73
2021/05/02 11:36:33;;;;;;;;;;;;;;;;;;5072242;28;19910;-73
2021/05/02 11:38:59;;;;;;;;;;;;;;;;;;5070844;28;19912;-75
2021/05/02 11:41:24;;;;;;;;;;;;;;;;;;5072180;28;20370;-74
2021/05/02 11:43:50;;;;;;;;;;;;;;;;;;5072140;28;19908;-73
2021/05/02 11:46:17;;;;;;;;;;;;;;;;;;5065054;28;20377;-71
2021/05/02 11:48:43;;;;;;;;;;;;;;;;;;5062907;28;20266;-73
2021/05/02 11:51:09;;;;;;;;;;;;;;;;;;5067370;28;19919;-74
2021/05/02 11:53:35;;;;;;;;;;;;;;;;;;5072134;28;19905;-73
2021/05/02 11:56:01;;;;;;;;;;;;;;;;;;5072067;28;20281;-73
2021/05/02 11:58:27;;;;;;;;;;;;;;;;;;5071921;28;19904;-76
2021/05/02 12:00:53;;;;;;;;;;;;;;;;;;5072065;28;19999;-72
2021/05/02 12:03:19;;;;;;;;;;;;;;;;;;5072020;28;19944;-73
2021/05/02 12:05:45;;;;;;;;;;;;;;;;;;5072648;28;19912;-74
2021/05/02 12:08:11;;;;;;;;;;;;;;;;;;5072093;28;19991;-76
2021/05/02 12:10:37;;;;;;;;;;;;;;;;;;5071965;28;20278;-76
2021/05/02 12:13:03;;;;;;;;;;;;;;;;;;5071856;28;19988;-76
2021/05/02 12:15:29;;;;;;;;;;;;;;;;;;5069514;28;20183;-76
2021/05/02 12:17:55;;;;;;;;;;;;;;;;;;5071709;28;20319;-75
2021/05/02 12:20:21;;;;;;;;;;;;;;;;;;5071435;28;20371;-76
2021/05/02 12:22:48;;;;;;;;;;;;;;;;;;5071659;28;19908;-74
2021/05/02 12:25:14;;;;;;;;;;;;;;;;;;5071590;28;20031;-74
2021/05/02 12:27:40;;;;;;;;;;;;;;;;;;5071676;28;20003;-76
2021/05/02 12:30:06;;;;;;;;;;;;;;;;;;5071661;28;19904;-76
2021/05/02 12:32:32;;;;;;;;;;;;;;;;;;5071729;28;19908;-75
2021/05/02 12:34:58;;;;;;;;;;;;;;;;;;5071557;28;19905;-73
2021/05/02 12:37:24;;;;;;;;;;;;;;;;;;5072640;28;19904;-71
2021/05/02 12:39:50;;;;;;;;;;;;;;;;;;5075428;28;19905;-72
2021/05/02 12:42:16;;;;;;;;;;;;;;;;;;5075145;28;19912;-72
2021/05/02 12:44:42;;;;;;;;;;;;;;;;;;5074482;28;19908;-73
2021/05/02 12:47:08;;;;;;;;;;;;;;;;;;5069373;28;19912;-74
2021/05/02 12:49:34;;;;;;;;;;;;;;;;;;5056949;28;19908;-74
2021/05/02 12:52:00;;;;;;;;;;;;;;;;;;5073747;28;19952;-76
2021/05/02 12:54:26;;;;;;;;;;;;;;;;;;5073607;28;19958;-75
2021/05/02 12:56:52;;;;;;;;;;;;;;;;;;5075418;28;19947;-76
2021/05/02 12:59:18;;;;;;;;;;;;;;;;;;5073815;28;19908;-75
2021/05/02 13:01:44;;;;;;;;;;;;;;;;;;5075172;28;19909;-75
2021/05/02 13:04:11;;;;;;;;;;;;;;;;;;5073794;28;19911;-75
2021/05/02 13:06:37;;;;;;;;;;;;;;;;;;5073728;28;19912;-75
2021/05/02 13:09:02;;;;;;;;;;;;;;;;;;5075045;28;19928;-75
2021/05/02 13:11:29;;;;;;;;;;;;;;;;;;5074882;28;20327;-76
2021/05/02 13:13:55;;;;;;;;;;;;;;;;;;5074884;28;20281;-76
2021/05/02 13:16:20;;;;;;;;;;;;;;;;;;5073069;28;19988;-76
2021/05/02 13:18:46;;;;;;;;;;;;;;;;;;5059403;28;20049;-75
2021/05/02 13:21:12;;;;;;;;;;;;;;;;;;5074866;28;20010;-75
2021/05/02 13:23:38;;;;;;;;;;;;;;;;;;5074844;28;20054;-74
2021/05/02 13:26:04;;;;;;;;;;;;;;;;;;5073680;28;19916;-76
2021/05/02 13:28:30;;;;;;;;;;;;;;;;;;5073452;28;19905;-76
2021/05/02 13:30:56;;;;;;;;;;;;;;;;;;5074793;28;19912;-76
2021/05/02 13:33:22;;;;;;;;;;;;;;;;;;5074813;28;19926;-75
2021/05/02 13:35:48;;;;;;;;;;;;;;;;;;5074460;28;19905;-74
2021/05/02 13:38:14;;;;;;;;;;;;;;;;;;5074636;28;19908;-75
2021/05/02 13:40:40;;;;;;;;;;;;;;;;;;5072845;28;20015;-75
2021/05/02 13:43:06;;;;;;;;;;;;;;;;;;5074517;28;19908;-75
2021/05/02 13:45:32;;;;;;;;;;;;;;;;;;5067451;28;19908;-75
2021/05/02 13:47:58;;;;;;;;;;;;;;;;;;5071237;28;20011;-74
2021/05/02 13:50:24;;;;;;;;;;;;;;;;;;5063361;28;19995;-75
2021/05/02 13:52:50;;;;;;;;;;;;;;;;;;5074015;28;19912;-75
2021/05/02 13:55:16;;;;;;;;;;;;;;;;;;5072914;28;19912;-75
2021/05/02 13:57:42;;;;;;;;;;;;;;;;;;5074171;28;20003;-75
2021/05/02 14:00:12;;;;;;;;;;;;;;;;;;5074399;28;19904;-76
2021/05/02 14:02:38;;;;;;;;;;;;;;;;;;5074211;28;19911;-75
2021/05/02 14:05:04;;;;;;;;;;;;;;;;;;5072427;28;19904;-75
2021/05/02 14:07:30;;;;;;;;;;;;;;;;;;5073701;28;19955;-75
2021/05/02 14:09:56;;;;;;;;;;;;;;;;;;5073360;28;19912;-75
2021/05/02 14:12:22;;;;;;;;;;;;;;;;;;5071967;28;19908;-75
2021/05/02 14:14:48;;;;;;;;;;;;;;;;;;5072066;28;19999;-75
2021/05/02 14:17:14;;;;;;;;;;;;;;;;;;5073603;28;19944;-75
2021/05/02 14:19:40;;;;;;;;;;;;;;;;;;5059963;28;20352;-75
2021/05/02 14:22:06;;;;;;;;;;;;;;;;;;5071159;28;19951;-75
2021/05/02 14:24:31;;;;;;;;;;;793.90;614.40;;;;;;5073362;28;19939;-72
2021/05/02 14:26:57;;;;;;;;;;;794.10;563.20;;;;;;5073034;28;19920;-73
2021/05/02 14:29:23;;;;;;;;;;;793.80;588.80;;;;;;5065403;28;19916;-73
2021/05/02 14:31:49;;;;;;;;;;;793.60;614.40;;;;;;5067292;28;19928;-75
2021/05/02 14:34:15;;;;;;;;;;;;;;;;;;5073218;28;20382;-75
2021/05/02 14:36:41;;;;;;;;;;;;;;;;;;5071774;28;19915;-75
2021/05/02 14:39:07;;;;;;;;;;;;;;;;;;5072800;28;20343;-75
2021/05/02 14:41:33;;;;;;;;;;;;;;;;;;5073122;28;19908;-75
2021/05/02 14:43:59;;;;;;;;;;;;;;;;;;5072621;28;19916;-75
2021/05/02 14:46:25;;;;;;;;;;;;;;;;;;5066318;28;19912;-73
2021/05/02 14:48:53;;;;;;;;;;;;;;;;;;5062559;28;19904;-74
2021/05/02 14:51:19;;;;;;;;;;;768.00;614.40;;;;;;5048978;28;19912;-73
2021/05/02 14:53:44;;;;;;;;;;;768.10;640.00;;;;;;5046720;28;19904;-73
2021/05/02 14:56:10;;;;;;;;;;;743.30;640.00;;;;;;5058218;28;19904;-75
2021/05/02 14:58:36;;;;;;;;;;;;;;;;;;5053012;28;19905;-75
2021/05/02 15:01:02;;;;;;;;;;;;;;;;;;5052374;28;20385;-76
2021/05/02 15:03:28;;;;;;;;;;;;;;;;;;5052719;28;19922;-76
2021/05/02 15:05:54;;;;;;;;;;;;;;;;;;5037790;28;19917;-76
2021/05/02 15:08:20;;;;;;;;;;;;;;;;;;5059321;28;19908;-71
2021/05/02 15:10:46;;;;;;;;;;;;;;;;;;5063585;28;20350;-72
2021/05/02 15:13:12;;;;;;;;;;;;;;;;;;5052511;28;19916;-75
2021/05/02 15:15:38;;;;;;;;;;;;;;;;;;5052333;28;19959;-74
2021/05/02 15:18:04;;;;;;;;;;;;;;;;;;5052423;28;19905;-75
2021/05/02 15:20:30;;;;;;;;;;;;;;;;;;5052169;28;19921;-75
2021/05/02 15:22:56;;;;;;;;;;;;;;;;;;5052323;28;19909;-74
2021/05/02 15:25:21;;;;;;;;;;;;;;;;;;5052093;28;19955;-74
2021/05/02 15:27:47;;;;;;;;;;;;;;;;;;5052118;28;19915;-72
2021/05/02 15:30:13;;;;;;;;;;;742.80;614.40;;;;;;5052242;28;19954;-70
2021/05/02 15:32:39;;;;;;;;;;;742.70;640.00;;;;;;5052578;28;19944;-70
2021/05/02 15:35:05;;;;;;;;;;;742.80;665.60;;;;;;5052186;28;20385;-72
2021/05/02 15:37:31;;;;;;;;;;;742.70;640.00;;;;;;5052354;28;19932;-73
2021/05/02 15:39:56;;;;;;;;;;;742.70;665.60;;;;;;5052003;28;20361;-74